Time;durP1;ratioP1;P1;durP2;ratioP2;P2;SDS_P1;SDS_P2;PMS_P1;PMS_P2;Temp;Humidity;BMP_temperature;BMP_pressure;BME280_temperature;BME280_humidity;BME280_pressure;Samples;Min_cycle;Max_cycle;Signal;HPM_P1;HPM_P2
2021/11/07 00:00:09;;;;;;;;;;;;;;;20.83;35.39;96365.28;1040980;28;950;-56
2021/11/07 00:01:30;;;;;;;;;;;;;;;20.80;35.33;96352.63;1043371;28;790;-55
2021/11/07 00:04:36;;;;;;;;;;;;;;;20.80;35.33;96360.53;1040190;28;864;-55
2021/11/07 00:05:24;;;;;;;;;;;;;;;20.81;35.34;96363.97;1041022;28;902;-57
2021/11/07 00:06:35;;;;;;;;;;;;;;;20.80;35.39;96371.06;1040992;28;1113;-55
2021/11/07 00:07:54;;;;;;;;;;;;;;;20.80;35.35;96373.72;1041066;28;987;-56
2021/11/07 00:10:43;;;;;;;;;;;;;;;20.80;35.35;96378.19;1044059;28;1507;-57
2021/11/07 00:11:49;;;;;;;;;;;;;;;20.79;35.34;96380.00;1044284;28;898;-58
2021/11/07 00:12:15;;;;;;;;;;;;;;;20.80;35.35;96367.63;1042164;28;1074;-55
2021/11/07 00:12:48;;;;;;;;;;;;;;;20.80;35.22;96365.00;1040559;28;1373;-56
2021/11/07 00:13:24;;;;;;;;;;;;;;;20.80;35.34;96370.28;1040770;28;840;-56
2021/11/07 00:13:54;;;;;;;;;;;;;;;20.79;35.24;96366.84;1040332;28;808;-57
2021/11/07 00:14:25;;;;;;;;;;;;;;;20.82;35.39;96360.25;1041049;28;847;-58
2021/11/07 00:14:56;;;;;;;;;;;;;;;20.83;35.13;96364.50;1044567;28;1014;-58
2021/11/07 00:15:26;;;;;;;;;;;;;;;20.82;35.15;96358.44;1043283;28;867;-56
2021/11/07 00:16:00;;;;;;;;;;;;;;;20.81;35.35;96356.81;1039999;28;812;-55
2021/11/07 00:16:34;;;;;;;;;;;;;;;20.81;35.34;96356.81;1040753;28;1013;-58
2021/11/07 00:17:04;;;;;;;;;;;;;;;20.84;35.25;96355.53;1040900;28;835;-58
2021/11/07 00:17:35;;;;;;;;;;;;;;;20.81;35.45;96353.44;1040954;28;856;-56
2021/11/07 00:18:10;;;;;;;;;;;;;;;20.81;35.38;96348.16;1040930;28;754;-57
2021/11/07 00:18:46;;;;;;;;;;;;;;;20.79;35.24;96356.31;1040753;28;804;-55
2021/11/07 00:19:35;;;;;;;;;;;;;;;20.78;35.21;96354.72;1044858;28;820;-56
2021/11/07 00:20:21;;;;;;;;;;;;;;;20.80;35.19;96365.00;1044560;28;812;-57
2021/11/07 00:21:07;;;;;;;;;;;;;;;20.79;35.41;96364.19;1044091;28;863;-54
2021/11/07 00:22:21;;;;;;;;;;;;;;;20.79;35.33;96368.72;1040018;28;1234;-53
2021/11/07 00:24:48;;;;;;;;;;;;;;;20.79;35.10;96380.00;1039936;28;1283;-56
2021/11/07 00:25:40;;;;;;;;;;;;;;;20.78;34.96;96378.44;1040606;28;828;-57
2021/11/07 00:26:54;;;;;;;;;;;;;;;20.79;35.15;96379.25;1040590;28;1416;-55
2021/11/07 00:27:36;;;;;;;;;;;;;;;20.79;35.08;96384.50;1040833;28;887;-55
2021/11/07 00:28:13;;;;;;;;;;;;;;;20.81;35.19;96390.31;1041045;28;882;-60
2021/11/07 00:29:29;;;;;;;;;;;;;;;20.79;35.08;96382.66;1040559;28;808;-58
2021/11/07 00:30:29;;;;;;;;;;;;;;;20.79;35.05;96382.66;1041010;28;935;-57
2021/11/07 00:31:20;;;;;;;;;;;;;;;20.80;35.21;96386.09;1039614;28;800;-56
2021/11/07 00:31:56;;;;;;;;;;;;;;;20.80;35.16;96386.88;1040754;28;1384;-56
2021/11/07 00:32:39;;;;;;;;;;;;;;;20.80;35.27;96388.72;1040326;28;785;-55
2021/11/07 00:33:24;;;;;;;;;;;;;;;20.79;35.15;96380.00;1040900;28;1026;-55
2021/11/07 00:36:48;;;;;;;;;;;;;;;20.77;35.16;96383.97;1031882;28;821;-55
2021/11/07 00:37:30;;;;;;;;;;;;;;;20.78;35.17;96383.72;1032201;28;1745;-55
2021/11/07 00:38:04;;;;;;;;;;;;;;;20.78;35.09;96388.19;1032827;28;1071;-56
2021/11/07 00:38:45;;;;;;;;;;;;;;;20.78;34.96;96385.56;1039310;28;788;-57
2021/11/07 00:39:27;;;;;;;;;;;;;;;20.79;35.01;96390.56;1040714;28;971;-53
2021/11/07 00:41:24;;;;;;;;;;;;;;;20.78;34.92;96388.19;1040474;28;832;-54
2021/11/07 00:42:56;;;;;;;;;;;;;;;20.78;35.11;96383.72;1040671;28;824;-56
2021/11/07 00:44:16;;;;;;;;;;;;;;;20.78;34.92;96382.91;1040810;28;1006;-56
2021/11/07 00:44:56;;;;;;;;;;;;;;;20.77;34.88;96390.03;1040573;28;824;-55
2021/11/07 00:46:58;;;;;;;;;;;;;;;20.77;35.05;96386.63;1048365;28;1261;-57
2021/11/07 00:47:43;;;;;;;;;;;;;;;20.74;34.98;96377.38;1041136;28;1041;-55
2021/11/07 00:48:25;;;;;;;;;;;;;;;20.75;35.23;96386.84;1040761;28;855;-54
2021/11/07 00:49:04;;;;;;;;;;;;;;;20.77;34.97;96389.25;1040704;28;1903;-56
2021/11/07 00:49:40;;;;;;;;;;;;;;;20.74;34.93;96387.91;1040760;28;788;-60
2021/11/07 00:50:17;;;;;;;;;;;;;;;20.75;35.02;96399.25;1040266;28;1341;-58
2021/11/07 00:51:10;;;;;;;;;;;;;;;20.76;35.06;96399.00;1036570;28;1001;-56
2021/11/07 00:51:47;;;;;;;;;;;;;;;20.76;34.94;96408.72;1036481;28;781;-58
2021/11/07 00:53:15;;;;;;;;;;;;;;;20.76;35.11;96411.38;1040407;28;1280;-54
2021/11/07 00:54:38;;;;;;;;;;;;;;;20.77;34.93;96415.59;1040285;28;1010;-58
2021/11/07 00:55:15;;;;;;;;;;;;;;;20.75;35.05;96409.78;1040249;28;927;-57
2021/11/07 00:55:51;;;;;;;;;;;;;;;20.76;34.80;96422.69;1040434;28;1049;-60
2021/11/07 00:56:36;;;;;;;;;;;;;;;20.77;34.94;96421.63;1040602;28;1010;-54
2021/11/07 00:58:17;;;;;;;;;;;;;;;20.78;35.00;96415.34;1040900;28;864;-56
2021/11/07 01:00:01;;;;;;;;;;;;;;;20.76;35.01;96414.81;1040290;28;812;-58
2021/11/07 01:01:36;;;;;;;;;;;;;;;20.76;34.87;96404.25;1040539;28;831;-57
2021/11/07 01:02:25;;;;;;;;;;;;;;;20.75;35.02;96404.53;1040468;28;844;-57
2021/11/07 01:03:04;;;;;;;;;;;;;;;20.75;35.04;96394.75;1040232;28;1391;-55
2021/11/07 01:03:35;;;;;;;;;;;;;;;20.74;35.07;96400.28;1040452;28;861;-57
2021/11/07 01:04:06;;;;;;;;;;;;;;;20.75;35.04;96404.53;1040386;28;844;-54
2021/11/07 01:04:37;;;;;;;;;;;;;;;20.74;35.06;96397.66;1040045;28;669;-58
2021/11/07 01:05:14;;;;;;;;;;;;;;;20.75;35.09;96400.03;1040785;28;1057;-57
2021/11/07 01:05:45;;;;;;;;;;;;;;;20.74;34.87;96401.09;1040312;28;979;-58
2021/11/07 01:06:16;;;;;;;;;;;;;;;20.75;34.81;96396.63;1040443;28;1010;-57
2021/11/07 01:06:46;;;;;;;;;;;;;;;20.74;34.94;96398.47;1040589;28;872;-56
2021/11/07 01:07:24;;;;;;;;;;;;;;;20.75;34.92;96404.53;1040781;28;809;-56
2021/11/07 01:07:54;;;;;;;;;;;;;;;20.77;35.01;96407.69;1040456;28;836;-57
2021/11/07 01:08:26;;;;;;;;;;;;;;;20.76;34.86;96398.19;1040172;28;1026;-58
2021/11/07 01:08:57;;;;;;;;;;;;;;;20.76;34.75;96401.63;1040530;28;1997;-56
2021/11/07 01:09:29;;;;;;;;;;;;;;;20.76;34.87;96408.72;1040464;28;809;-56
2021/11/07 01:10:03;;;;;;;;;;;;;;;20.76;35.06;96406.09;1040260;28;765;-60
2021/11/07 01:10:33;;;;;;;;;;;;;;;20.74;35.03;96409.00;1040274;28;814;-58
2021/11/07 01:11:04;;;;;;;;;;;;;;;20.74;35.02;96402.94;1036677;28;1410;-57
2021/11/07 01:11:35;;;;;;;;;;;;;;;20.74;34.84;96409.00;1040138;28;793;-55
2021/11/07 01:12:06;;;;;;;;;;;;;;;20.74;34.99;96409.00;1040325;28;986;-55
2021/11/07 01:12:37;;;;;;;;;;;;;;;20.75;34.88;96407.94;1040212;28;1016;-55
2021/11/07 01:13:07;;;;;;;;;;;;;;;20.73;35.08;96410.03;1040743;28;1381;-55
2021/11/07 01:13:38;;;;;;;;;;;;;;;20.74;34.86;96406.38;1041032;28;1018;-55
2021/11/07 01:14:09;;;;;;;;;;;;;;;20.74;34.89;96410.84;1040579;28;863;-58
2021/11/07 01:14:39;;;;;;;;;;;;;;;20.74;34.77;96410.84;1040332;28;1054;-56
2021/11/07 01:15:10;;;;;;;;;;;;;;;20.74;34.87;96410.84;1040873;28;820;-55
2021/11/07 01:15:40;;;;;;;;;;;;;;;20.74;35.14;96416.91;1040600;28;1538;-57
2021/11/07 01:16:11;;;;;;;;;;;;;;;20.74;34.82;96401.09;1039264;28;838;-56
2021/11/07 01:16:41;;;;;;;;;;;;;;;20.73;34.96;96410.03;1040726;28;777;-57
2021/11/07 01:17:12;;;;;;;;;;;;;;;20.73;34.89;96406.63;1040679;28;859;-58
2021/11/07 01:17:42;;;;;;;;;;;;;;;20.72;34.89;96408.47;1040943;28;845;-55
2021/11/07 01:18:16;;;;;;;;;;;;;;;20.72;35.03;96411.09;1040859;28;820;-55
2021/11/07 01:18:50;;;;;;;;;;;;;;;20.71;34.95;96409.50;1040900;28;804;-57
2021/11/07 01:19:20;;;;;;;;;;;;;;;20.72;34.99;96405.81;1040775;28;808;-55
2021/11/07 01:19:58;;;;;;;;;;;;;;;20.70;35.07;96402.66;1036478;28;1499;-57
2021/11/07 01:20:30;;;;;;;;;;;;;;;20.71;35.00;96400.81;1036406;28;833;-58
2021/11/07 01:21:01;;;;;;;;;;;;;;;20.71;35.00;96400.81;1036113;28;852;-55
2021/11/07 01:21:36;;;;;;;;;;;;;;;20.71;34.94;96392.91;1037952;28;832;-57
2021/11/07 01:22:10;;;;;;;;;;;;;;;20.71;34.82;96398.19;1044561;28;864;-58
2021/11/07 01:22:58;;;;;;;;;;;;;;;20.71;34.86;96395.56;1044619;28;1237;-56
2021/11/07 01:23:42;;;;;;;;;;;;;;;20.70;34.82;96383.41;1044808;28;780;-54
2021/11/07 01:24:25;;;;;;;;;;;;;;;20.70;35.01;96386.84;1039885;28;1441;-55
2021/11/07 01:25:01;;;;;;;;;;;;;;;20.69;34.81;96385.25;1040413;28;848;-57
2021/11/07 01:25:56;;;;;;;;;;;;;;;20.71;34.92;96390.28;1036375;28;1443;-57
2021/11/07 01:26:40;;;;;;;;;;;;;;;;;;;;;
2021/11/07 01:27:21;;;;;;;;;;;;;;;20.69;34.82;96390.53;1034958;28;1020;-59
2021/11/07 01:28:08;;;;;;;;;;;;;;;20.70;34.81;96392.13;1036395;28;992;-59
2021/11/07 01:28:46;;;;;;;;;;;;;;;20.72;34.83;96394.50;1032419;28;1135;-58
2021/11/07 01:29:21;;;;;;;;;;;;;;;20.69;34.77;96390.53;1028760;28;865;-60
2021/11/07 01:29:55;;;;;;;;;;;;;;;20.69;34.68;96389.75;1036483;28;789;-58
2021/11/07 01:30:28;;;;;;;;;;;;;;;20.68;34.99;96394.22;1032417;28;1010;-58
2021/11/07 01:31:00;;;;;;;;;;;;;;;20.68;34.91;96385.53;1032775;28;844;-56
2021/11/07 01:31:31;;;;;;;;;;;;;;;20.69;35.03;96389.75;1037219;28;872;-58
2021/11/07 01:32:03;;;;;;;;;;;;;;;20.67;35.13;96392.63;1037482;28;1448;-58
2021/11/07 01:32:40;;;;;;;;;;;;;;;20.68;34.96;96386.31;1040368;28;809;-56
2021/11/07 01:33:26;;;;;;;;;;;;;;;20.69;35.00;96384.50;1040473;28;833;-58
2021/11/07 01:34:07;;;;;;;;;;;;;;;20.70;34.92;96376.31;1040672;28;1078;-59
2021/11/07 01:34:52;;;;;;;;;;;;;;;20.69;35.06;96379.22;1039793;28;1283;-59
2021/11/07 01:35:29;;;;;;;;;;;;;;;20.69;34.81;96377.34;1036491;28;880;-59
2021/11/07 01:36:51;;;;;;;;;;;;;;;20.69;34.76;96372.09;1040472;28;835;-59
2021/11/07 01:37:24;;;;;;;;;;;;;;;20.70;34.81;96373.69;1040635;28;852;-59
2021/11/07 01:38:10;;;;;;;;;;;;;;;20.71;34.73;96377.13;1040358;28;879;-59
2021/11/07 01:38:52;;;;;;;;;;;;;;;20.69;34.80;96368.69;1040372;28;852;-57
2021/11/07 01:39:36;;;;;;;;;;;;;;;20.69;34.81;96363.41;1039585;28;867;-58
2021/11/07 01:40:17;;;;;;;;;;;;;;;20.69;34.95;96360.78;1040011;28;944;-57
2021/11/07 01:41:16;;;;;;;;;;;;;;;20.70;34.64;96363.16;1038907;28;1528;-59
2021/11/07 01:42:34;;;;;;;;;;;;;;;20.69;34.89;96353.63;1035578;28;719;-54
2021/11/07 01:43:05;;;;;;;;;;;;;;;20.67;34.64;96355.75;1036489;28;1194;-58
2021/11/07 01:43:35;;;;;;;;;;;;;;;20.68;35.02;96352.06;1038621;28;809;-57
2021/11/07 01:44:10;;;;;;;;;;;;;;;20.68;34.92;96349.44;1040832;28;801;-57
2021/11/07 01:44:48;;;;;;;;;;;;;;;20.68;34.87;96348.63;1039946;28;1010;-57
2021/11/07 01:45:26;;;;;;;;;;;;;;;20.69;34.70;96350.25;1040459;28;796;-57
2021/11/07 01:46:27;;;;;;;;;;;;;;;20.68;34.74;96352.06;1039556;28;996;-56
2021/11/07 01:46:58;;;;;;;;;;;;;;;20.67;34.92;96350.47;1040381;28;790;-56
2021/11/07 01:47:29;;;;;;;;;;;;;;;20.68;34.73;96352.06;1040902;28;1788;-56
2021/11/07 01:48:13;;;;;;;;;;;;;;;20.66;34.95;96354.19;1040827;28;1034;-59
2021/11/07 01:48:52;;;;;;;;;;;;;;;20.67;34.90;96352.34;1040060;28;1910;-57
2021/11/07 01:49:26;;;;;;;;;;;;;;;20.68;34.87;96348.63;1040510;28;753;-58
2021/11/07 01:50:00;;;;;;;;;;;;;;;20.66;34.71;96342.84;1036113;28;1208;-58
2021/11/07 01:50:34;;;;;;;;;;;;;;;20.66;34.63;96354.19;1036192;28;1603;-57
2021/11/07 01:51:05;;;;;;;;;;;;;;;20.66;34.84;96343.63;1035786;28;819;-58
2021/11/07 01:51:36;;;;;;;;;;;;;;;20.68;34.81;96341.53;1037115;28;833;-56
2021/11/07 01:52:08;;;;;;;;;;;;;;;20.68;34.62;96341.53;1036750;28;1301;-60
2021/11/07 01:52:42;;;;;;;;;;;;;;;20.69;34.70;96343.09;1040343;28;986;-57
2021/11/07 01:53:23;;;;;;;;;;;;;;;20.68;34.67;96336.28;1040295;28;808;-55
2021/11/07 01:54:00;;;;;;;;;;;;;;;20.67;34.70;96336.53;1040689;28;774;-56
2021/11/07 01:55:20;;;;;;;;;;;;;;;20.66;34.87;96338.38;1044504;28;2428;-59
2021/11/07 01:55:50;;;;;;;;;;;;;;;20.66;34.57;96341.00;1040573;28;828;-59
2021/11/07 01:56:21;;;;;;;;;;;;;;;20.66;35.13;96335.75;1040327;28;831;-54
2021/11/07 01:56:51;;;;;;;;;;;;;;;20.66;34.71;96341.00;1040467;28;1676;-59
2021/11/07 01:57:23;;;;;;;;;;;;;;;20.66;34.75;96341.00;1040589;28;824;-58
2021/11/07 01:57:54;;;;;;;;;;;;;;;20.66;34.82;96345.47;1044742;28;729;-56
2021/11/07 01:58:25;;;;;;;;;;;;;;;20.65;34.71;96342.03;1044620;28;725;-59
2021/11/07 01:58:57;;;;;;;;;;;;;;;20.64;34.86;96345.75;1040026;28;1014;-55
2021/11/07 01:59:28;;;;;;;;;;;;;;;20.65;34.76;96343.91;1036386;28;727;-58
2021/11/07 01:59:59;;;;;;;;;;;;;;;20.64;34.86;96337.84;1036613;28;800;-58
2021/11/07 02:00:31;;;;;;;;;;;;;;;20.67;34.75;96337.31;1036041;28;1010;-58
2021/11/07 02:01:01;;;;;;;;;;;;;;;20.65;34.81;96342.03;1039348;28;1086;-58
2021/11/07 02:01:32;;;;;;;;;;;;;;;20.65;34.88;96334.13;1039976;28;775;-57
2021/11/07 02:02:02;;;;;;;;;;;;;;;20.64;34.78;96337.84;1040303;28;809;-57
2021/11/07 02:02:34;;;;;;;;;;;;;;;20.64;34.78;96329.94;1040250;28;1160;-58
2021/11/07 02:03:05;;;;;;;;;;;;;;;20.63;34.90;96330.97;1040590;28;1162;-58
2021/11/07 02:03:36;;;;;;;;;;;;;;;20.63;34.80;96327.56;1039931;28;1133;-59
2021/11/07 02:04:07;;;;;;;;;;;;;;;20.64;34.69;96331.78;1040393;28;845;-58
2021/11/07 02:04:37;;;;;;;;;;;;;;;20.65;34.91;96325.47;1040216;28;883;-57
2021/11/07 02:05:08;;;;;;;;;;;;;;;20.66;34.69;96327.03;1040773;28;1115;-57
2021/11/07 02:05:39;;;;;;;;;;;;;;;20.65;34.77;96331.50;1044382;28;1326;-57
2021/11/07 02:06:12;;;;;;;;;;;;;;;20.65;34.66;96331.50;1044512;28;803;-56
2021/11/07 02:06:43;;;;;;;;;;;;;;;20.65;34.66;96322.84;1044576;28;848;-57
2021/11/07 02:07:14;;;;;;;;;;;;;;;20.65;34.55;96330.75;1044191;28;856;-56
2021/11/07 02:07:44;;;;;;;;;;;;;;;20.66;34.88;96327.03;1040709;28;812;-59
2021/11/07 02:08:21;;;;;;;;;;;;;;;20.64;34.61;96319.41;1040512;28;828;-55
2021/11/07 02:09:06;;;;;;;;;;;;;;;20.63;34.62;96315.16;1036107;28;1898;-56
2021/11/07 02:09:37;;;;;;;;;;;;;;;20.62;34.57;96310.97;1032098;28;790;-59
2021/11/07 02:10:08;;;;;;;;;;;;;;;20.64;34.58;96319.41;1035177;28;528;-59
2021/11/07 02:10:59;;;;;;;;;;;;;;;20.63;34.97;96317.81;1038442;28;1072;-57
2021/11/07 02:11:37;;;;;;;;;;;;;;;20.62;34.90;96316.22;1040073;28;1404;-57
2021/11/07 02:12:09;;;;;;;;;;;;;;;20.61;34.63;96327.81;1040087;28;1141;-58
2021/11/07 02:12:40;;;;;;;;;;;;;;;20.63;34.80;96324.94;1036224;28;916;-58
2021/11/07 02:13:11;;;;;;;;;;;;;;;20.63;34.58;96327.56;1036662;28;789;-57
2021/11/07 02:13:41;;;;;;;;;;;;;;;20.62;34.79;96325.97;1040269;28;879;-56
2021/11/07 02:14:12;;;;;;;;;;;;;;;20.63;34.68;96324.94;1040375;28;852;-56
2021/11/07 02:14:43;;;;;;;;;;;;;;;20.62;34.75;96328.59;1039954;28;839;-55
2021/11/07 02:15:17;;;;;;;;;;;;;;;20.63;34.72;96325.72;1044494;28;1081;-57
2021/11/07 02:16:08;;;;;;;;;;;;;;;20.62;34.70;96326.78;1040712;28;989;-57
2021/11/07 02:16:59;;;;;;;;;;;;;;;20.62;34.83;96334.69;1042964;28;1019;-58
2021/11/07 02:17:31;;;;;;;;;;;;;;;20.62;34.56;96329.41;1040751;28;816;-57
2021/11/07 02:18:02;;;;;;;;;;;;;;;20.62;34.49;96337.31;1039560;28;839;-57
2021/11/07 02:18:32;;;;;;;;;;;;;;;20.62;34.61;96331.25;1039353;28;785;-57
2021/11/07 02:19:03;;;;;;;;;;;;;;;20.60;34.73;96328.88;1040782;28;832;-59
2021/11/07 02:19:34;;;;;;;;;;;;;;;20.61;34.58;96334.94;1040326;28;943;-56
2021/11/07 02:20:05;;;;;;;;;;;;;;;20.62;34.62;96337.31;1040066;28;1601;-58
2021/11/07 02:20:40;;;;;;;;;;;;;;;20.62;34.70;96331.25;1040287;28;737;-58
2021/11/07 02:21:13;;;;;;;;;;;;;;;20.62;34.77;96337.31;1037126;28;1326;-56
2021/11/07 02:22:04;;;;;;;;;;;;;;;20.62;34.66;96339.94;1039161;28;1378;-56
2021/11/07 02:22:54;;;;;;;;;;;;;;;20.62;34.47;96328.59;1037993;28;1253;-56
2021/11/07 02:23:45;;;;;;;;;;;;;;;20.61;34.51;96327.81;1040605;28;1011;-57
2021/11/07 02:24:36;;;;;;;;;;;;;;;20.61;34.74;96324.41;1039972;28;1195;-57
2021/11/07 02:25:07;;;;;;;;;;;;;;;20.61;34.56;96319.13;1040629;28;876;-58
2021/11/07 02:25:38;;;;;;;;;;;;;;;20.60;34.64;96320.97;1040674;28;816;-59
2021/11/07 02:26:09;;;;;;;;;;;;;;;20.60;34.86;96318.34;1043909;28;1242;-57
2021/11/07 02:26:41;;;;;;;;;;;;;;;20.59;34.72;96322.00;1044622;28;1385;-57
2021/11/07 02:27:14;;;;;;;;;;;;;;;20.61;34.63;96319.91;1036354;28;919;-57
2021/11/07 02:28:05;;;;;;;;;;;;;;;20.59;34.56;96308.03;1032756;28;1100;-57
2021/11/07 02:28:47;;;;;;;;;;;;;;;20.60;34.56;96312.28;1036702;28;1959;-57
2021/11/07 02:29:20;;;;;;;;;;;;;;;20.59;34.66;96306.19;1044409;28;883;-59
2021/11/07 02:29:51;;;;;;;;;;;;;;;20.59;34.74;96302.78;1040483;28;1600;-58
2021/11/07 02:30:22;;;;;;;;;;;;;;;20.59;34.77;96306.19;1036071;28;856;-55
2021/11/07 02:30:55;;;;;;;;;;;;;;;20.60;34.52;96307.81;1035684;28;872;-58
2021/11/07 02:31:25;;;;;;;;;;;;;;;20.59;34.79;96303.56;1035901;28;1068;-58
2021/11/07 02:31:56;;;;;;;;;;;;;;;20.59;34.70;96305.41;1036242;28;845;-58
2021/11/07 02:32:28;;;;;;;;;;;;;;;20.57;34.61;96303.03;1032387;28;817;-58
2021/11/07 02:32:59;;;;;;;;;;;;;;;20.58;34.61;96304.63;1036338;28;1229;-51
2021/11/07 02:33:30;;;;;;;;;;;;;;;20.59;34.56;96306.19;1036789;28;872;-55
2021/11/07 02:34:03;;;;;;;;;;;;;;;20.58;34.57;96309.91;1040085;28;783;-57
2021/11/07 02:34:33;;;;;;;;;;;;;;;20.58;34.54;96304.63;1039710;28;1018;-59
2021/11/07 02:35:04;;;;;;;;;;;;;;;20.59;34.70;96306.19;1040770;28;871;-59
2021/11/07 02:35:34;;;;;;;;;;;;;;;20.61;34.63;96306.75;1040113;28;816;-57
2021/11/07 02:36:06;;;;;;;;;;;;;;;20.59;34.73;96300.94;1040002;28;826;-58
2021/11/07 02:36:37;;;;;;;;;;;;;;;20.59;34.73;96300.94;1040183;28;840;-59
2021/11/07 02:37:08;;;;;;;;;;;;;;;20.56;34.58;96290.94;1040365;28;861;-59
2021/11/07 02:37:39;;;;;;;;;;;;;;;20.57;34.68;96296.97;1040336;28;922;-55
2021/11/07 02:38:09;;;;;;;;;;;;;;;20.58;34.57;96293.31;1036163;28;1176;-58
2021/11/07 02:38:40;;;;;;;;;;;;;;;20.57;34.56;96287.22;1036157;28;1058;-61
2021/11/07 02:39:13;;;;;;;;;;;;;;;20.56;34.52;96277.78;1035977;28;871;-57
2021/11/07 02:39:44;;;;;;;;;;;;;;;20.57;34.63;96276.69;1036890;28;991;-54
2021/11/07 02:40:15;;;;;;;;;;;;;;;20.58;34.46;96278.28;1040089;28;900;-58
2021/11/07 02:40:47;;;;;;;;;;;;;;;20.57;34.72;96276.69;1040096;28;923;-60
2021/11/07 02:41:17;;;;;;;;;;;;;;;20.57;34.46;96271.44;1039996;28;1161;-58
2021/11/07 02:41:48;;;;;;;;;;;;;;;20.57;34.58;96270.63;1040434;28;864;-56
2021/11/07 02:42:18;;;;;;;;;;;;;;;20.57;34.51;96281.16;1040284;28;1014;-57
2021/11/07 02:42:49;;;;;;;;;;;;;;;20.56;34.64;96280.41;1040399;28;1292;-58
2021/11/07 02:43:19;;;;;;;;;;;;;;;20.56;34.60;96280.41;1036230;28;979;-58
2021/11/07 02:43:50;;;;;;;;;;;;;;;20.54;34.58;96285.13;1036018;28;975;-55
2021/11/07 02:44:34;;;;;;;;;;;;;;;20.55;34.72;96286.72;1035536;28;820;-57
2021/11/07 02:45:04;;;;;;;;;;;;;;;20.54;34.54;96287.78;1040047;28;971;-57
2021/11/07 02:45:35;;;;;;;;;;;;;;;20.56;34.53;96284.88;1044305;28;1026;-59
2021/11/07 02:46:06;;;;;;;;;;;;;;;20.57;34.63;96291.72;1043330;28;736;-58
2021/11/07 02:46:37;;;;;;;;;;;;;;;20.56;34.60;96290.13;1040043;28;745;-57
2021/11/07 02:47:08;;;;;;;;;;;;;;;20.56;34.67;96290.13;1039822;28;753;-59
2021/11/07 02:47:38;;;;;;;;;;;;;;;20.55;34.57;96293.81;1036331;28;769;-59
2021/11/07 02:48:08;;;;;;;;;;;;;;;20.55;34.41;96284.06;1036418;28;785;-59
2021/11/07 02:48:39;;;;;;;;;;;;;;;20.55;34.73;96291.19;1036105;28;871;-56
2021/11/07 02:49:09;;;;;;;;;;;;;;;20.55;34.50;96291.97;1035468;28;1922;-57
2021/11/07 02:49:41;;;;;;;;;;;;;;;20.55;34.66;96293.81;1040343;28;1378;-59
2021/11/07 02:50:12;;;;;;;;;;;;;;;20.55;34.47;96291.19;1040758;28;1222;-59
2021/11/07 02:50:43;;;;;;;;;;;;;;;20.54;34.51;96285.13;1044449;28;915;-57
2021/11/07 02:51:13;;;;;;;;;;;;;;;20.55;34.59;96284.06;1043912;28;812;-60
2021/11/07 02:51:44;;;;;;;;;;;;;;;20.55;34.59;96278.81;1044339;28;804;-58
2021/11/07 02:52:14;;;;;;;;;;;;;;;20.55;34.58;96286.72;1040208;28;792;-57
2021/11/07 02:52:45;;;;;;;;;;;;;;;20.55;34.41;96281.44;1040738;28;1173;-56
2021/11/07 02:53:16;;;;;;;;;;;;;;;20.56;34.40;96280.41;1040596;28;808;-57
2021/11/07 02:53:47;;;;;;;;;;;;;;;20.56;34.52;96279.59;1040601;28;855;-57
2021/11/07 02:54:17;;;;;;;;;;;;;;;20.55;34.28;96284.06;1039972;28;793;-56
2021/11/07 02:54:48;;;;;;;;;;;;;;;20.54;34.32;96282.50;1039982;28;907;-56
2021/11/07 02:55:21;;;;;;;;;;;;;;;20.55;34.36;96275.38;1036227;28;825;-59
2021/11/07 02:55:52;;;;;;;;;;;;;;;20.54;34.66;96281.72;1036467;28;856;-59
2021/11/07 02:56:22;;;;;;;;;;;;;;;20.54;34.44;96279.88;1036822;28;900;-59
2021/11/07 02:56:53;;;;;;;;;;;;;;;20.55;34.34;96272.75;1040261;28;761;-58
2021/11/07 02:57:24;;;;;;;;;;;;;;;20.55;34.43;96281.44;1040300;28;761;-58
2021/11/07 02:57:57;;;;;;;;;;;;;;;20.55;34.40;96276.16;1040212;28;1408;-56
2021/11/07 02:58:27;;;;;;;;;;;;;;;20.54;34.30;96276.44;1040442;28;801;-57
2021/11/07 02:58:58;;;;;;;;;;;;;;;20.54;34.34;96279.88;1039845;28;883;-59
2021/11/07 02:59:29;;;;;;;;;;;;;;;20.53;34.35;96277.47;1040354;28;852;-60
2021/11/07 03:00:03;;;;;;;;;;;;;;;20.52;34.55;96276.72;1040687;28;833;-58
2021/11/07 03:00:34;;;;;;;;;;;;;;;20.53;34.26;96280.91;1040230;28;1227;-56
2021/11/07 03:01:04;;;;;;;;;;;;;;;20.53;34.38;96280.09;1030861;28;1268;-57
2021/11/07 03:01:35;;;;;;;;;;;;;;;20.53;34.55;96278.28;1032011;28;746;-57
2021/11/07 03:02:06;;;;;;;;;;;;;;;20.52;34.28;96276.72;1031947;28;823;-58
2021/11/07 03:02:36;;;;;;;;;;;;;;;20.53;34.48;96275.63;1036261;28;813;-57
2021/11/07 03:03:07;;;;;;;;;;;;;;;20.53;34.31;96273.00;1040554;28;1276;-55
2021/11/07 03:03:37;;;;;;;;;;;;;;;20.53;34.45;96278.28;1040516;28;800;-58
2021/11/07 03:04:09;;;;;;;;;;;;;;;20.53;34.39;96269.56;1040116;28;998;-55
2021/11/07 03:04:39;;;;;;;;;;;;;;;20.52;34.21;96268.81;1040217;28;797;-56
2021/11/07 03:05:10;;;;;;;;;;;;;;;20.52;34.24;96263.53;1040537;28;991;-56
2021/11/07 03:05:41;;;;;;;;;;;;;;;20.51;34.46;96256.69;1040476;28;1145;-56
2021/11/07 03:06:11;;;;;;;;;;;;;;;20.51;34.34;96256.69;1039973;28;793;-56
2021/11/07 03:06:43;;;;;;;;;;;;;;;20.51;34.21;96251.41;1040639;28;824;-57
2021/11/07 03:07:13;;;;;;;;;;;;;;;20.51;34.35;96251.41;1040658;28;903;-57
2021/11/07 03:07:44;;;;;;;;;;;;;;;20.53;34.35;96253.78;1040137;28;1447;-58
2021/11/07 03:08:14;;;;;;;;;;;;;;;20.52;34.21;96247.75;1039977;28;871;-57
2021/11/07 03:08:49;;;;;;;;;;;;;;;20.52;34.12;96242.47;1040213;28;1968;-57
2021/11/07 03:09:21;;;;;;;;;;;;;;;20.51;34.34;96251.41;1040048;28;811;-56
2021/11/07 03:09:52;;;;;;;;;;;;;;;20.50;34.38;96249.03;1040477;28;879;-56
2021/11/07 03:10:23;;;;;;;;;;;;;;;20.49;34.03;96247.44;1040405;28;764;-55
2021/11/07 03:10:54;;;;;;;;;;;;;;;20.51;34.33;96250.59;1040175;28;845;-57
2021/11/07 03:11:25;;;;;;;;;;;;;;;20.51;34.22;96259.31;1040559;28;836;-57
2021/11/07 03:11:55;;;;;;;;;;;;;;;20.50;34.12;96244.56;1039810;28;851;-56
2021/11/07 03:12:26;;;;;;;;;;;;;;;20.50;34.25;96251.69;1040325;28;979;-54
2021/11/07 03:13:06;;;;;;;;;;;;;;;20.49;34.54;96252.72;1040658;28;1371;-56
2021/11/07 03:13:37;;;;;;;;;;;;;;;20.49;34.30;96250.88;1040513;28;848;-54
2021/11/07 03:14:08;;;;;;;;;;;;;;;20.50;34.24;96251.69;1039911;28;1042;-56
2021/11/07 03:14:49;;;;;;;;;;;;;;;20.50;34.40;96244.56;1040046;28;878;-55
2021/11/07 03:15:20;;;;;;;;;;;;;;;20.50;34.18;96241.13;1040647;28;734;-57
2021/11/07 03:15:51;;;;;;;;;;;;;;;20.49;34.30;96242.19;1040262;28;789;-57
2021/11/07 03:16:21;;;;;;;;;;;;;;;20.48;34.46;96241.41;1039600;28;1364;-56
2021/11/07 03:16:52;;;;;;;;;;;;;;;20.48;34.27;96237.97;1041014;28;1082;-56
2021/11/07 03:17:23;;;;;;;;;;;;;;;20.48;34.37;96241.41;1040819;28;913;-57
2021/11/07 03:17:54;;;;;;;;;;;;;;;20.49;34.20;96242.97;1040972;28;876;-56
2021/11/07 03:18:24;;;;;;;;;;;;;;;20.49;34.08;96236.91;1040773;28;1509;-59
2021/11/07 03:18:55;;;;;;;;;;;;;;;20.49;34.11;96231.66;1041112;28;812;-56
2021/11/07 03:19:26;;;;;;;;;;;;;;;20.48;34.06;96233.50;1040461;28;812;-60
2021/11/07 03:19:57;;;;;;;;;;;;;;;20.48;34.20;96228.25;1041127;28;987;-57
2021/11/07 03:20:28;;;;;;;;;;;;;;;20.49;34.25;96221.91;1040795;28;863;-58
2021/11/07 03:20:58;;;;;;;;;;;;;;;20.47;34.21;96225.84;1040970;28;836;-57
2021/11/07 03:21:29;;;;;;;;;;;;;;;20.46;34.01;96217.19;1041389;28;987;-59
2021/11/07 03:22:02;;;;;;;;;;;;;;;20.47;34.27;96213.47;1041232;28;1045;-58
2021/11/07 03:22:33;;;;;;;;;;;;;;;20.47;34.29;96205.59;1040342;28;1254;-58
2021/11/07 03:23:04;;;;;;;;;;;;;;;20.47;34.20;96212.69;1040837;28;2278;-59
2021/11/07 03:23:42;;;;;;;;;;;;;;;20.47;34.28;96207.41;1041002;28;1099;-55
2021/11/07 03:24:13;;;;;;;;;;;;;;;20.46;34.13;96204.00;1041820;28;820;-57
2021/11/07 03:24:44;;;;;;;;;;;;;;;20.46;34.34;96201.38;1040485;28;1385;-56
2021/11/07 03:25:14;;;;;;;;;;;;;;;20.45;34.12;96205.06;1040926;28;1764;-58
2021/11/07 03:25:49;;;;;;;;;;;;;;;20.45;34.10;96205.06;1041036;28;816;-56
2021/11/07 03:26:24;;;;;;;;;;;;;;;20.44;34.21;96208.75;1036699;28;928;-56
2021/11/07 03:26:57;;;;;;;;;;;;;;;20.44;34.21;96216.66;1037922;28;908;-58
2021/11/07 03:27:34;;;;;;;;;;;;;;;20.43;34.33;96217.69;1041155;28;994;-58
2021/11/07 03:28:05;;;;;;;;;;;;;;;20.42;34.20;96216.13;1041239;28;851;-58
2021/11/07 03:28:36;;;;;;;;;;;;;;;20.45;34.20;96215.59;1040999;28;729;-58
2021/11/07 03:29:08;;;;;;;;;;;;;;;20.46;34.13;96225.09;1040417;28;1973;-57